sensor_id;sensor_type;location;lat;lon;timestamp;pressure;altitude;pressure_sealevel;temperature;humidity
55679;BME280;41573;51.446;-2.018;2023-02-18T00:01:11;93988.53;;;8.85;100.00
55679;BME280;41573;51.446;-2.018;2023-02-18T00:03:40;93791.22;;;8.80;100.00
55679;BME280;41573;51.446;-2.018;2023-02-18T00:06:32;93655.97;;;8.75;100.00
55679;BME280;41573;51.446;-2.018;2023-02-18T00:09:04;93586.78;;;8.72;100.00
55679;BME280;41573;51.446;-2.018;2023-02-18T00:14:52;93203.25;;;8.67;100.00
55679;BME280;41573;51.446;-2.018;2023-02-18T00:17:23;93070.22;;;8.70;100.00
55679;BME280;41573;51.446;-2.018;2023-02-18T00:19:58;92972.66;;;8.72;100.00
55679;BME280;41573;51.446;-2.018;2023-02-18T00:22:25;92959.72;;;8.66;100.00
55679;BME280;41573;51.446;-2.018;2023-02-18T00:24:55;92920.22;;;8.64;100.00
55679;BME280;41573;51.446;-2.018;2023-02-18T00:27:22;92896.94;;;8.56;100.00
55679;BME280;41573;51.446;-2.018;2023-02-18T00:29:48;92845.00;;;8.55;100.00
55679;BME280;41573;51.446;-2.018;2023-02-18T00:32:14;92821.72;;;8.47;100.00
55679;BME280;41573;51.446;-2.018;2023-02-18T00:34:51;92759.72;;;8.48;100.00
55679;BME280;41573;51.446;-2.018;2023-02-18T00:37:18;92729.53;;;8.49;100.00
55679;BME280;41573;51.446;-2.018;2023-02-18T00:39:57;92675.19;;;8.51;100.00
55679;BME280;41573;51.446;-2.018;2023-02-18T00:42:22;92645.47;;;8.59;100.00
55679;BME280;41573;51.446;-2.018;2023-02-18T00:48:12;92525.94;;;8.66;100.00
55679;BME280;41573;51.446;-2.018;2023-02-18T00:50:38;92528.59;;;8.66;100.00
55679;BME280;41573;51.446;-2.018;2023-02-18T00:53:04;92512.66;;;8.71;100.00
55679;BME280;41573;51.446;-2.018;2023-02-18T00:55:37;92492.53;;;8.70;100.00
55679;BME280;41573;51.446;-2.018;2023-02-18T00:58:02;92467.63;;;8.71;100.00
55679;BME280;41573;51.446;-2.018;2023-02-18T01:00:30;92450.69;;;8.67;100.00
55679;BME280;41573;51.446;-2.018;2023-02-18T01:02:57;92435.28;;;8.69;100.00
55679;BME280;41573;51.446;-2.018;2023-02-18T01:26:08;92584.25;;;8.61;100.00
55679;BME280;41573;51.446;-2.018;2023-02-18T01:28:36;92632.50;;;8.58;100.00
55679;BME280;41573;51.446;-2.018;2023-02-18T01:31:07;92682.34;;;8.56;100.00
55679;BME280;41573;51.446;-2.018;2023-02-18T01:33:33;92738.47;;;8.58;100.00
55679;BME280;41573;51.446;-2.018;2023-02-18T01:35:59;92795.72;;;8.59;100.00
55679;BME280;41573;51.446;-2.018;2023-02-18T01:38:24;92846.56;;;8.66;100.00
55679;BME280;41573;51.446;-2.018;2023-02-18T01:40:53;92913.03;;;8.75;100.00
55679;BME280;41573;51.446;-2.018;2023-02-18T01:43:21;92963.09;;;8.87;100.00
55679;BME280;41573;51.446;-2.018;2023-02-18T01:48:28;93108.38;;;8.95;100.00
55679;BME280;41573;51.446;-2.018;2023-02-18T01:51:08;93170.41;;;8.99;100.00
55679;BME280;41573;51.446;-2.018;2023-02-18T01:54:05;93257.41;;;8.97;100.00
55679;BME280;41573;51.446;-2.018;2023-02-18T02:00:13;93491.81;;;9.01;100.00
55679;BME280;41573;51.446;-2.018;2023-02-18T02:02:43;93616.19;;;9.03;100.00
55679;BME280;41573;51.446;-2.018;2023-02-18T02:05:11;93710.31;;;9.05;100.00
55679;BME280;41573;51.446;-2.018;2023-02-18T04:30:43;96406.66;;;9.34;100.00
55679;BME280;41573;51.446;-2.018;2023-02-18T04:33:09;96383.19;;;9.38;100.00
55679;BME280;41573;51.446;-2.018;2023-02-18T04:35:35;96406.28;;;9.37;100.00
55679;BME280;41573;51.446;-2.018;2023-02-18T04:38:02;96389.91;;;9.34;100.00
55679;BME280;41573;51.446;-2.018;2023-02-18T04:40:28;96393.78;;;9.31;100.00
55679;BME280;41573;51.446;-2.018;2023-02-18T04:42:57;96392.94;;;9.30;100.00
55679;BME280;41573;51.446;-2.018;2023-02-18T04:45:23;96394.13;;;9.28;100.00
55679;BME280;41573;51.446;-2.018;2023-02-18T04:47:49;96389.47;;;9.30;100.00
55679;BME280;41573;51.446;-2.018;2023-02-18T04:50:15;96387.38;;;9.25;100.00
55679;BME280;41573;51.446;-2.018;2023-02-18T04:52:41;96388.56;;;9.23;100.00
55679;BME280;41573;51.446;-2.018;2023-02-18T04:55:06;96397.91;;;9.19;100.00
55679;BME280;41573;51.446;-2.018;2023-02-18T06:38:18;95581.28;;;9.06;100.00
55679;BME280;41573;51.446;-2.018;2023-02-18T06:40:46;95594.94;;;9.09;100.00
55679;BME280;41573;51.446;-2.018;2023-02-18T06:43:16;95575.56;;;8.89;100.00
55679;BME280;41573;51.446;-2.018;2023-02-18T06:45:43;95314.84;;;8.82;100.00
55679;BME280;41573;51.446;-2.018;2023-02-18T07:02:33;94235.78;;;8.92;100.00
55679;BME280;41573;51.446;-2.018;2023-02-18T07:05:03;94182.97;;;8.90;100.00
55679;BME280;41573;51.446;-2.018;2023-02-18T07:07:34;94124.50;;;8.97;100.00
55679;BME280;41573;51.446;-2.018;2023-02-18T07:10:21;94059.78;;;8.98;100.00
55679;BME280;41573;51.446;-2.018;2023-02-18T07:13:09;93991.41;;;9.00;100.00
55679;BME280;41573;51.446;-2.018;2023-02-18T07:26:18;93782.56;;;9.12;100.00
55679;BME280;41573;51.446;-2.018;2023-02-18T07:28:46;93746.22;;;9.13;100.00
55679;BME280;41573;51.446;-2.018;2023-02-18T07:31:15;93706.72;;;9.17;100.00
55679;BME280;41573;51.446;-2.018;2023-02-18T07:33:43;93674.34;;;9.14;100.00
55679;BME280;41573;51.446;-2.018;2023-02-18T07:36:09;93645.72;;;9.17;100.00
55679;BME280;41573;51.446;-2.018;2023-02-18T07:38:34;93603.53;;;9.15;100.00
55679;BME280;41573;51.446;-2.018;2023-02-18T07:41:01;93564.03;;;9.19;100.00
55679;BME280;41573;51.446;-2.018;2023-02-18T07:43:29;93506.72;;;9.12;100.00
55679;BME280;41573;51.446;-2.018;2023-02-18T07:45:55;93460.28;;;9.15;100.00
55679;BME280;41573;51.446;-2.018;2023-02-18T07:48:20;93397.72;;;9.19;100.00
55679;BME280;41573;51.446;-2.018;2023-02-18T07:50:48;93361.13;;;9.16;100.00
55679;BME280;41573;51.446;-2.018;2023-02-18T07:53:15;93333.81;;;9.21;100.00
55679;BME280;41573;51.446;-2.018;2023-02-18T07:55:40;93307.00;;;9.22;100.00
55679;BME280;41573;51.446;-2.018;2023-02-18T07:58:19;93297.75;;;9.25;100.00
55679;BME280;41573;51.446;-2.018;2023-02-18T08:00:45;93275.72;;;9.29;100.00
55679;BME280;41573;51.446;-2.018;2023-02-18T08:03:12;93286.06;;;9.26;100.00
55679;BME280;41573;51.446;-2.018;2023-02-18T08:05:42;93251.06;;;9.29;100.00
55679;BME280;41573;51.446;-2.018;2023-02-18T08:08:12;93220.28;;;9.28;100.00
55679;BME280;41573;51.446;-2.018;2023-02-18T08:10:38;93212.84;;;9.25;100.00
55679;BME280;41573;51.446;-2.018;2023-02-18T08:13:19;93191.09;;;9.28;100.00
55679;BME280;41573;51.446;-2.018;2023-02-18T08:15:49;93180.50;;;9.28;100.00
55679;BME280;41573;51.446;-2.018;2023-02-18T08:18:20;93158.75;;;9.31;100.00
55679;BME280;41573;51.446;-2.018;2023-02-18T08:20:47;93139.94;;;9.32;100.00
55679;BME280;41573;51.446;-2.018;2023-02-18T08:23:14;93123.19;;;9.32;100.00
55679;BME280;41573;51.446;-2.018;2023-02-18T08:25:50;93111.53;;;9.33;100.00
55679;BME280;41573;51.446;-2.018;2023-02-18T08:28:19;93082.63;;;9.37;100.00
55679;BME280;41573;51.446;-2.018;2023-02-18T08:30:49;93065.34;;;9.39;100.00
55679;BME280;41573;51.446;-2.018;2023-02-18T08:33:16;93060.56;;;9.36;100.00
55679;BME280;41573;51.446;-2.018;2023-02-18T08:35:42;93049.69;;;9.38;100.00
55679;BME280;41573;51.446;-2.018;2023-02-18T08:38:10;93036.97;;;9.40;100.00
55679;BME280;41573;51.446;-2.018;2023-02-18T08:40:36;93025.28;;;9.41;100.00
55679;BME280;41573;51.446;-2.018;2023-02-18T08:43:02;93019.19;;;9.40;100.00
55679;BME280;41573;51.446;-2.018;2023-02-18T08:45:31;93021.56;;;9.42;100.00
55679;BME280;41573;51.446;-2.018;2023-02-18T08:47:56;93012.78;;;9.46;100.00
55679;BME280;41573;51.446;-2.018;2023-02-18T08:50:22;92993.16;;;9.47;100.00
55679;BME280;41573;51.446;-2.018;2023-02-18T08:52:52;92980.44;;;9.49;100.00
55679;BME280;41573;51.446;-2.018;2023-02-18T08:55:18;92980.44;;;9.49;100.00
55679;BME280;41573;51.446;-2.018;2023-02-18T08:57:49;92967.66;;;9.52;100.00
55679;BME280;41573;51.446;-2.018;2023-02-18T09:00:15;92959.69;;;9.57;100.00
55679;BME280;41573;51.446;-2.018;2023-02-18T09:02:43;92953.03;;;9.59;100.00
55679;BME280;41573;51.446;-2.018;2023-02-18T09:05:10;92928.09;;;9.60;100.00
55679;BME280;41573;51.446;-2.018;2023-02-18T09:07:36;92917.44;;;9.65;100.00
55679;BME280;41573;51.446;-2.018;2023-02-18T09:10:03;92892.22;;;9.68;100.00
55679;BME280;41573;51.446;-2.018;2023-02-18T09:12:29;92896.44;;;9.69;100.00
55679;BME280;41573;51.446;-2.018;2023-02-18T09:14:55;92903.13;;;9.66;100.00
55679;BME280;41573;51.446;-2.018;2023-02-18T09:17:25;92908.66;;;9.70;100.00
55679;BME280;41573;51.446;-2.018;2023-02-18T09:19:53;92910.72;;;9.78;100.00
55679;BME280;41573;51.446;-2.018;2023-02-18T09:22:20;92893.66;;;9.90;100.00
55679;BME280;41573;51.446;-2.018;2023-02-18T09:24:46;92913.88;;;9.86;100.00
55679;BME280;41573;51.446;-2.018;2023-02-18T09:27:12;92900.50;;;9.96;100.00
55679;BME280;41573;51.446;-2.018;2023-02-18T09:29:39;92893.84;;;9.98;100.00
55679;BME280;41573;51.446;-2.018;2023-02-18T09:32:07;92904.97;;;10.06;100.00
55679;BME280;41573;51.446;-2.018;2023-02-18T09:34:34;92908.16;;;10.08;100.00
55679;BME280;41573;51.446;-2.018;2023-02-18T09:36:59;92913.66;;;10.16;100.00
55679;BME280;41573;51.446;-2.018;2023-02-18T09:39:25;92913.00;;;10.30;100.00
55679;BME280;41573;51.446;-2.018;2023-02-18T09:41:55;92918.81;;;10.37;100.00
55679;BME280;41573;51.446;-2.018;2023-02-18T09:44:35;92921.19;;;10.39;100.00
55679;BME280;41573;51.446;-2.018;2023-02-18T09:49:42;92987.34;;;10.40;100.00
55679;BME280;41573;51.446;-2.018;2023-02-18T09:52:16;93023.47;;;10.41;100.00
55679;BME280;41573;51.446;-2.018;2023-02-18T09:54:44;93059.06;;;10.45;100.00
55679;BME280;41573;51.446;-2.018;2023-02-18T10:02:55;93166.41;;;10.49;100.00
55679;BME280;41573;51.446;-2.018;2023-02-18T10:05:23;93178.31;;;10.57;100.00
55679;BME280;41573;51.446;-2.018;2023-02-18T10:07:53;93236.56;;;10.54;100.00
55679;BME280;41573;51.446;-2.018;2023-02-18T10:10:32;93283.34;;;10.55;100.00
55679;BME280;41573;51.446;-2.018;2023-02-18T10:12:59;93311.53;;;10.50;100.00
55679;BME280;41573;51.446;-2.018;2023-02-18T10:15:28;93371.56;;;10.51;100.00
55679;BME280;41573;51.446;-2.018;2023-02-18T10:17:56;93400.31;;;10.49;100.00
55679;BME280;41573;51.446;-2.018;2023-02-18T10:20:26;93448.94;;;10.55;100.00
55679;BME280;41573;51.446;-2.018;2023-02-18T10:22:54;93486.41;;;10.54;100.00
55679;BME280;41573;51.446;-2.018;2023-02-18T10:25:22;93517.25;;;10.49;100.00
55679;BME280;41573;51.446;-2.018;2023-02-18T10:27:51;93576.25;;;10.51;100.00
55679;BME280;41573;51.446;-2.018;2023-02-18T10:30:41;93610.28;;;10.49;100.00
55679;BME280;41573;51.446;-2.018;2023-02-18T10:33:30;93626.78;;;10.57;100.00
55679;BME280;41573;51.446;-2.018;2023-02-18T10:36:06;93651.25;;;10.64;100.00
55679;BME280;41573;51.446;-2.018;2023-02-18T10:41:24;93708.19;;;10.73;100.00
55679;BME280;41573;51.446;-2.018;2023-02-18T10:44:17;93763.50;;;10.76;100.00
55679;BME280;41573;51.446;-2.018;2023-02-18T10:49:55;93816.16;;;10.79;100.00
55679;BME280;41573;51.446;-2.018;2023-02-18T10:52:22;93864.56;;;10.76;100.00
55679;BME280;41573;51.446;-2.018;2023-02-18T10:54:58;93912.94;;;10.73;100.00
55679;BME280;41573;51.446;-2.018;2023-02-18T10:57:24;93949.91;;;10.75;100.00
55679;BME280;41573;51.446;-2.018;2023-02-18T11:02:39;94012.97;;;10.79;100.00
55679;BME280;41573;51.446;-2.018;2023-02-18T11:05:23;94087.38;;;10.74;100.00
55679;BME280;41573;51.446;-2.018;2023-02-18T11:07:55;94099.63;;;10.75;100.00
55679;BME280;41573;51.446;-2.018;2023-02-18T11:10:26;94142.72;;;10.77;100.00
55679;BME280;41573;51.446;-2.018;2023-02-18T11:13:00;94176.69;;;10.70;100.00
55679;BME280;41573;51.446;-2.018;2023-02-18T11:25:59;94363.84;;;10.64;100.00
55679;BME280;41573;51.446;-2.018;2023-02-18T11:28:42;94405.25;;;10.60;100.00
55679;BME280;41573;51.446;-2.018;2023-02-18T11:31:37;94413.56;;;10.63;100.00
55679;BME280;41573;51.446;-2.018;2023-02-18T11:33:59;94423.47;;;10.68;100.00
55679;BME280;41573;51.446;-2.018;2023-02-18T11:36:30;94462.47;;;10.62;100.00
55679;BME280;41573;51.446;-2.018;2023-02-18T11:41:52;94501.88;;;10.65;100.00
55679;BME280;41573;51.446;-2.018;2023-02-18T11:44:38;94516.84;;;10.72;100.00
55679;BME280;41573;51.446;-2.018;2023-02-18T11:50:16;94554.03;;;10.66;100.00
55679;BME280;41573;51.446;-2.018;2023-02-18T11:53:27;94567.63;;;10.70;100.00
55679;BME280;41573;51.446;-2.018;2023-02-18T11:56:16;94589.38;;;10.67;100.00
55679;BME280;41573;51.446;-2.018;2023-02-18T11:58:45;94611.81;;;10.71;100.00
55679;BME280;41573;51.446;-2.018;2023-02-18T12:01:26;94632.84;;;10.73;100.00
55679;BME280;41573;51.446;-2.018;2023-02-18T12:04:06;94675.38;;;10.73;100.00
55679;BME280;41573;51.446;-2.018;2023-02-18T12:06:49;94689.59;;;10.78;100.00
55679;BME280;41573;51.446;-2.018;2023-02-18T12:09:30;94710.63;;;10.80;100.00
55679;BME280;41573;51.446;-2.018;2023-02-18T12:12:10;94743.47;;;10.85;100.00
55679;BME280;41573;51.446;-2.018;2023-02-18T12:14:41;94775.38;;;10.85;100.00
55679;BME280;41573;51.446;-2.018;2023-02-18T12:20:18;94852.28;;;10.87;100.00
55679;BME280;41573;51.446;-2.018;2023-02-18T12:25:57;94920.19;;;10.90;100.00
55679;BME280;41573;51.446;-2.018;2023-02-18T12:34:36;95043.38;;;10.90;100.00
55679;BME280;41573;51.446;-2.018;2023-02-18T12:37:43;95092.56;;;10.88;100.00
55679;BME280;41573;51.446;-2.018;2023-02-18T12:45:38;95205.16;;;11.00;100.00
55679;BME280;41573;51.446;-2.018;2023-02-18T12:54:36;95340.88;;;11.00;100.00
55679;BME280;41573;51.446;-2.018;2023-02-18T13:03:50;95449.13;;;11.06;100.00
55679;BME280;41573;51.446;-2.018;2023-02-18T13:14:40;95604.94;;;11.09;100.00
55679;BME280;41573;51.446;-2.018;2023-02-18T13:17:11;95634.84;;;11.04;100.00
55679;BME280;41573;51.446;-2.018;2023-02-18T13:22:24;95666.06;;;11.15;100.00
55679;BME280;41573;51.446;-2.018;2023-02-18T13:24:54;95687.56;;;11.20;100.00
55679;BME280;41573;51.446;-2.018;2023-02-18T13:35:28;95802.25;;;11.19;100.00
55679;BME280;41573;51.446;-2.018;2023-02-18T13:40:57;95907.38;;;11.03;100.00
55679;BME280;41573;51.446;-2.018;2023-02-18T13:48:46;95965.94;;;11.03;100.00
55679;BME280;41573;51.446;-2.018;2023-02-18T13:51:46;95990.50;;;11.05;100.00
55679;BME280;41573;51.446;-2.018;2023-02-18T13:56:57;96048.00;;;11.13;100.00
55679;BME280;41573;51.446;-2.018;2023-02-18T14:04:51;96105.97;;;11.37;100.00
55679;BME280;41573;51.446;-2.018;2023-02-18T14:10:04;96194.66;;;11.31;100.00
55679;BME280;41573;51.446;-2.018;2023-02-18T14:17:48;96283.97;;;11.20;100.00
55679;BME280;41573;51.446;-2.018;2023-02-18T14:22:48;96280.75;;;11.38;100.00
55679;BME280;41573;51.446;-2.018;2023-02-18T14:25:32;96270.50;;;11.55;100.00
55679;BME280;41573;51.446;-2.018;2023-02-18T14:44:53;96618.97;;;11.67;100.00
55679;BME280;41573;51.446;-2.018;2023-02-18T14:50:21;96704.16;;;11.53;100.00
55679;BME280;41573;51.446;-2.018;2023-02-18T14:53:01;96737.47;;;11.43;100.00
55679;BME280;41573;51.446;-2.018;2023-02-18T14:55:29;96748.53;;;11.39;100.00
55679;BME280;41573;51.446;-2.018;2023-02-18T14:58:07;96761.03;;;11.39;100.00
55679;BME280;41573;51.446;-2.018;2023-02-18T15:00:42;96764.63;;;11.31;100.00
55679;BME280;41573;51.446;-2.018;2023-02-18T15:03:15;96771.19;;;11.29;100.00
55679;BME280;41573;51.446;-2.018;2023-02-18T15:05:45;96780.56;;;11.25;100.00
55679;BME280;41573;51.446;-2.018;2023-02-18T15:13:35;96790.31;;;11.17;100.00
55679;BME280;41573;51.446;-2.018;2023-02-18T15:16:06;96802.94;;;11.09;100.00
55679;BME280;41573;51.446;-2.018;2023-02-18T15:18:41;96819.91;;;11.08;100.00
55679;BME280;41573;51.446;-2.018;2023-02-18T15:21:27;96805.34;;;11.03;100.00
55679;BME280;41573;51.446;-2.018;2023-02-18T15:23:53;96828.63;;;11.01;100.00
55679;BME280;41573;51.446;-2.018;2023-02-18T15:26:20;96854.16;;;10.96;100.00
55679;BME280;41573;51.446;-2.018;2023-02-18T15:29:19;96871.41;;;11.00;100.00
55679;BME280;41573;51.446;-2.018;2023-02-18T15:31:47;96894.84;;;10.90;100.00
55679;BME280;41573;51.446;-2.018;2023-02-18T15:36:52;96923.03;;;10.84;100.00
55679;BME280;41573;51.446;-2.018;2023-02-18T15:39:17;96909.91;;;10.82;100.00
55679;BME280;41573;51.446;-2.018;2023-02-18T15:41:44;96920.13;;;10.79;100.00
55679;BME280;41573;51.446;-2.018;2023-02-18T15:44:24;96929.19;;;10.84;100.00
55679;BME280;41573;51.446;-2.018;2023-02-18T15:46:52;96931.56;;;10.79;100.00
55679;BME280;41573;51.446;-2.018;2023-02-18T15:49:22;96957.81;;;10.82;100.00
55679;BME280;41573;51.446;-2.018;2023-02-18T15:51:54;96968.84;;;10.79;100.00
55679;BME280;41573;51.446;-2.018;2023-02-18T15:54:22;96973.78;;;10.82;100.00
55679;BME280;41573;51.446;-2.018;2023-02-18T15:57:02;97012.16;;;10.73;100.00
55679;BME280;41573;51.446;-2.018;2023-02-18T15:59:35;97029.38;;;10.62;100.00
55679;BME280;41573;51.446;-2.018;2023-02-18T16:04:37;97056.72;;;10.56;100.00
55679;BME280;41573;51.446;-2.018;2023-02-18T16:07:18;97049.19;;;10.60;100.00
55679;BME280;41573;51.446;-2.018;2023-02-18T16:09:47;97100.09;;;10.57;100.00
55679;BME280;41573;51.446;-2.018;2023-02-18T16:12:29;97119.53;;;10.57;100.00
55679;BME280;41573;51.446;-2.018;2023-02-18T16:14:57;97177.44;;;10.55;100.00
55679;BME280;41573;51.446;-2.018;2023-02-18T16:17:26;97208.06;;;10.51;100.00
55679;BME280;41573;51.446;-2.018;2023-02-18T16:20:02;97222.50;;;10.57;100.00
55679;BME280;41573;51.446;-2.018;2023-02-18T16:22:45;97266.75;;;10.49;100.00
55679;BME280;41573;51.446;-2.018;2023-02-18T16:27:48;97279.25;;;10.32;100.00
55679;BME280;41573;51.446;-2.018;2023-02-18T16:30:42;97274.75;;;10.33;100.00
55679;BME280;41573;51.446;-2.018;2023-02-18T16:33:10;97267.13;;;10.30;100.00
55679;BME280;41573;51.446;-2.018;2023-02-18T16:35:35;97270.47;;;10.32;100.00
55679;BME280;41573;51.446;-2.018;2023-02-18T16:38:03;97266.13;;;10.31;100.00
55679;BME280;41573;51.446;-2.018;2023-02-18T16:40:37;97254.50;;;10.32;100.00
55679;BME280;41573;51.446;-2.018;2023-02-18T16:43:16;97238.88;;;10.29;100.00
55679;BME280;41573;51.446;-2.018;2023-02-18T16:45:48;97241.06;;;10.25;100.00
55679;BME280;41573;51.446;-2.018;2023-02-18T16:48:23;97248.19;;;10.25;100.00
55679;BME280;41573;51.446;-2.018;2023-02-18T16:50:50;97240.72;;;10.20;100.00
55679;BME280;41573;51.446;-2.018;2023-02-18T16:53:17;97243.28;;;10.13;100.00
55679;BME280;41573;51.446;-2.018;2023-02-18T16:55:48;97249.59;;;10.12;100.00
55679;BME280;41573;51.446;-2.018;2023-02-18T16:58:13;97229.50;;;10.01;100.00
55679;BME280;41573;51.446;-2.018;2023-02-18T17:00:42;97228.84;;;9.99;100.00
55679;BME280;41573;51.446;-2.018;2023-02-18T17:50:03;96968.44;;;9.60;100.00
55679;BME280;41573;51.446;-2.018;2023-02-18T17:59:18;96981.03;;;9.58;100.00
55679;BME280;41573;51.446;-2.018;2023-02-18T19:04:24;97060.47;;;9.44;100.00
55679;BME280;41573;51.446;-2.018;2023-02-18T19:06:51;97057.66;;;9.46;100.00
55679;BME280;41573;51.446;-2.018;2023-02-18T19:09:17;97059.47;;;9.45;100.00
55679;BME280;41573;51.446;-2.018;2023-02-18T19:11:45;97071.09;;;9.44;100.00
55679;BME280;41573;51.446;-2.018;2023-02-18T19:14:12;97080.91;;;9.44;100.00
55679;BME280;41573;51.446;-2.018;2023-02-18T19:16:39;97087.53;;;9.48;100.00
55679;BME280;41573;51.446;-2.018;2023-02-18T19:19:09;97102.28;;;9.51;100.00
55679;BME280;41573;51.446;-2.018;2023-02-18T19:21:35;97103.59;;;9.46;100.00
55679;BME280;41573;51.446;-2.018;2023-02-18T19:24:01;97129.53;;;9.44;100.00
55679;BME280;41573;51.446;-2.018;2023-02-18T19:26:26;97109.63;;;9.40;100.00
55679;BME280;41573;51.446;-2.018;2023-02-18T19:28:55;97116.25;;;9.44;100.00
55679;BME280;41573;51.446;-2.018;2023-02-18T19:31:21;97122.72;;;9.42;100.00
55679;BME280;41573;51.446;-2.018;2023-02-18T19:33:51;97132.19;;;9.44;100.00
55679;BME280;41573;51.446;-2.018;2023-02-18T19:36:17;97137.84;;;9.41;100.00
55679;BME280;41573;51.446;-2.018;2023-02-18T19:38:46;97133.34;;;9.42;100.00
55679;BME280;41573;51.446;-2.018;2023-02-18T19:41:13;97134.19;;;9.42;100.00
55679;BME280;41573;51.446;-2.018;2023-02-18T19:43:48;97125.38;;;9.42;100.00
55679;BME280;41573;51.446;-2.018;2023-02-18T19:46:16;97129.53;;;9.44;100.00
55679;BME280;41573;51.446;-2.018;2023-02-18T19:48:43;97138.84;;;9.40;100.00
55679;BME280;41573;51.446;-2.018;2023-02-18T19:51:11;97146.44;;;9.43;100.00
55679;BME280;41573;51.446;-2.018;2023-02-18T19:53:39;97155.44;;;9.42;100.00
55679;BME280;41573;51.446;-2.018;2023-02-18T19:56:07;97144.13;;;9.40;100.00
55679;BME280;41573;51.446;-2.018;2023-02-18T19:58:33;97144.97;;;9.41;100.00
55679;BME280;41573;51.446;-2.018;2023-02-18T20:00:59;97147.47;;;9.42;100.00
55679;BME280;41573;51.446;-2.018;2023-02-18T20:03:27;97151.94;;;9.42;100.00
55679;BME280;41573;51.446;-2.018;2023-02-18T20:06:12;97149.78;;;9.37;100.00
55679;BME280;41573;51.446;-2.018;2023-02-18T20:08:39;97158.41;;;9.39;100.00
55679;BME280;41573;51.446;-2.018;2023-02-18T20:11:06;97164.41;;;9.41;100.00
55679;BME280;41573;51.446;-2.018;2023-02-18T20:13:38;97167.41;;;9.38;100.00
55679;BME280;41573;51.446;-2.018;2023-02-18T20:16:08;97174.84;;;9.35;100.00
55679;BME280;41573;51.446;-2.018;2023-02-18T20:18:34;97149.28;;;9.34;100.00
55679;BME280;41573;51.446;-2.018;2023-02-18T20:21:00;97154.13;;;9.30;100.00
55679;BME280;41573;51.446;-2.018;2023-02-18T20:23:26;97167.06;;;9.25;100.00
55679;BME280;41573;51.446;-2.018;2023-02-18T20:25:51;97162.09;;;9.22;100.00
55679;BME280;41573;51.446;-2.018;2023-02-18T20:28:17;97169.25;;;9.13;100.00
55679;BME280;41573;51.446;-2.018;2023-02-18T20:30:42;97173.41;;;9.07;100.00
55679;BME280;41573;51.446;-2.018;2023-02-18T20:33:08;97170.06;;;9.05;100.00
55679;BME280;41573;51.446;-2.018;2023-02-18T20:35:34;97173.91;;;9.03;100.00
55679;BME280;41573;51.446;-2.018;2023-02-18T20:38:00;97177.38;;;8.95;100.00
55679;BME280;41573;51.446;-2.018;2023-02-18T20:40:25;97179.03;;;8.88;100.00
55679;BME280;41573;51.446;-2.018;2023-02-18T20:42:51;97165.28;;;8.84;100.00
55679;BME280;41573;51.446;-2.018;2023-02-18T20:45:17;97159.81;;;8.86;100.00
55679;BME280;41573;51.446;-2.018;2023-02-18T20:47:42;97167.94;;;8.84;100.00
55679;BME280;41573;51.446;-2.018;2023-02-18T20:50:08;97166.91;;;8.85;100.00
55679;BME280;41573;51.446;-2.018;2023-02-18T20:52:34;97169.06;;;8.73;100.00
55679;BME280;41573;51.446;-2.018;2023-02-18T20:54:59;97173.56;;;8.73;100.00
55679;BME280;41573;51.446;-2.018;2023-02-18T20:57:25;97160.75;;;8.68;100.00
55679;BME280;41573;51.446;-2.018;2023-02-18T20:59:51;97158.59;;;8.63;100.00
55679;BME280;41573;51.446;-2.018;2023-02-18T21:02:38;97152.81;;;8.60;100.00
55679;BME280;41573;51.446;-2.018;2023-02-18T21:05:11;97129.25;;;8.57;100.00
55679;BME280;41573;51.446;-2.018;2023-02-18T21:07:46;97123.47;;;8.53;100.00
